createdAt,value
2022-09-20T00:01:32.394Z,102229.31
2022-09-20T00:04:07.150Z,102234.81
2022-09-20T00:06:41.571Z,102233.25
2022-09-20T00:09:15.325Z,102228.59
2022-09-20T00:11:49.640Z,102220.56
2022-09-20T00:14:25.156Z,102215.75
2022-09-20T00:16:58.579Z,102227.63
2022-09-20T00:19:31.656Z,102215.00
2022-09-20T00:22:06.594Z,102220.22
2022-09-20T00:24:40.002Z,102215.06
2022-09-20T00:27:16.241Z,102217.78
2022-09-20T00:29:49.170Z,102218.97
2022-09-20T00:32:22.217Z,102233.66
2022-09-20T00:35:11.015Z,102242.63
2022-09-20T00:37:47.004Z,102241.75
2022-09-20T00:40:22.440Z,102237.81
2022-09-20T00:42:55.462Z,102231.53
2022-09-20T00:45:30.804Z,102226.84
2022-09-20T00:48:10.755Z,102229.94
2022-09-20T00:50:46.967Z,102226.84
2022-09-20T00:53:26.930Z,102226.44
2022-09-20T00:56:05.020Z,102230.81
2022-09-20T00:58:41.166Z,102230.41
2022-09-20T01:01:15.164Z,102238.69
2022-09-20T01:03:50.037Z,102239.47
2022-09-20T01:06:22.807Z,102230.28
2022-09-20T01:09:02.539Z,102237.41
2022-09-20T01:11:37.303Z,102232.25
2022-09-20T01:14:10.545Z,102234.16
2022-09-20T01:16:44.109Z,102232.25
2022-09-20T01:19:24.223Z,102224.41
2022-09-20T01:21:57.422Z,102234.25
2022-09-20T01:24:39.877Z,102233.69
2022-09-20T01:27:20.709Z,102232.09
2022-09-20T01:30:05.524Z,102228.53
2022-09-20T01:32:49.160Z,102227.34
2022-09-20T01:35:25.352Z,102230.44
2022-09-20T01:38:10.357Z,102235.22
2022-09-20T01:40:50.568Z,102229.75
2022-09-20T01:43:32.755Z,102225.44
2022-09-20T01:46:17.968Z,102233.66
2022-09-20T01:48:54.578Z,102229.66
2022-09-20T01:51:46.230Z,102230.06
2022-09-20T01:54:44.617Z,102228.03
2022-09-20T01:57:42.796Z,102230.38
2022-09-20T02:00:18.266Z,102227.59
2022-09-20T02:03:12.833Z,102220.84
2022-09-20T02:06:15.135Z,102217.06
2022-09-20T02:09:16.257Z,102220.97
2022-09-20T02:12:10.110Z,102218.03
2022-09-20T02:14:52.864Z,102221.59
2022-09-20T02:17:32.476Z,102219.16
2022-09-20T02:20:23.302Z,102217.19
2022-09-20T02:23:13.159Z,102214.88
2022-09-20T02:26:06.142Z,102211.66
2022-09-20T02:28:52.869Z,102214.88
2022-09-20T02:31:43.133Z,102217.75
2022-09-20T02:34:45.008Z,102213.69
2022-09-20T02:37:41.112Z,102209.19
2022-09-20T02:40:26.310Z,102210.28
2022-09-20T02:43:08.687Z,102214.66
2022-09-20T02:45:49.713Z,102207.50
2022-09-20T02:48:30.828Z,102217.34
2022-09-20T02:51:13.935Z,102210.19
2022-09-20T02:53:56.344Z,102212.69
2022-09-20T02:56:38.318Z,102212.75
2022-09-20T02:59:22.715Z,102205.88
2022-09-20T03:02:05.009Z,102210.28
2022-09-20T03:04:57.243Z,102208.94
2022-09-20T03:07:38.368Z,102210.19
2022-09-20T03:10:21.340Z,102202.25
2022-09-20T03:13:08.795Z,102206.09
2022-09-20T03:15:53.657Z,102211.72
2022-09-20T03:18:35.991Z,102215.00
2022-09-20T03:21:22.708Z,102222.25
2022-09-20T03:24:06.079Z,102243.88
2022-09-20T03:26:52.365Z,102234.53
2022-09-20T03:29:41.927Z,102236.50
2022-09-20T03:32:31.346Z,102234.53
2022-09-20T03:35:20.705Z,102235.28
2022-09-20T03:38:04.856Z,102234.53
2022-09-20T03:41:06.095Z,102236.09
2022-09-20T03:43:55.964Z,102234.69
2022-09-20T03:46:30.751Z,102228.34
2022-09-20T03:49:33.574Z,102224.38
2022-09-20T03:52:17.360Z,102218.34
2022-09-20T03:55:25.815Z,102209.28
2022-09-20T03:58:11.104Z,102209.25
2022-09-20T04:01:01.727Z,102214.81
2022-09-20T04:03:41.240Z,102213.31
2022-09-20T04:06:31.766Z,102208.41
2022-09-20T04:09:34.839Z,102211.75
2022-09-20T04:12:15.678Z,102214.19
2022-09-20T04:14:59.194Z,102224.06
2022-09-20T04:17:50.427Z,102218.84
2022-09-20T04:20:32.847Z,102214.97
2022-09-20T04:23:16.422Z,102216.38
2022-09-20T04:25:52.165Z,102221.94
2022-09-20T04:28:32.017Z,102218.44
2022-09-20T04:31:20.142Z,102218.78
2022-09-20T04:33:58.504Z,102225.56
2022-09-20T04:36:54.025Z,102219.81
2022-09-20T04:39:42.506Z,102223.66
2022-09-20T04:42:46.734Z,102222.03
2022-09-20T04:45:58.269Z,102226.28
2022-09-20T04:49:02.558Z,102229.50
2022-09-20T04:52:11.272Z,102238.69
2022-09-20T04:55:25.977Z,102237.81
2022-09-20T04:58:36.186Z,102238.97
2022-09-20T05:01:48.709Z,102246.31
2022-09-20T05:04:58.247Z,102247.75
2022-09-20T05:08:08.462Z,102248.91
2022-09-20T05:11:14.887Z,102243.34
2022-09-20T05:14:03.228Z,102245.25
2022-09-20T05:16:51.959Z,102248.03
2022-09-20T05:19:39.562Z,102246.75
2022-09-20T05:22:49.911Z,102255.00
2022-09-20T05:25:45.054Z,102250.72
2022-09-20T05:28:27.458Z,102252.94
2022-09-20T05:31:07.564Z,102249.63
2022-09-20T05:33:48.243Z,102242.88
2022-09-20T05:36:34.353Z,102247.56
2022-09-20T05:39:23.518Z,102253.41
2022-09-20T05:42:01.773Z,102252.63
2022-09-20T05:44:51.507Z,102261.38
2022-09-20T05:47:34.333Z,102257.44
2022-09-20T05:50:29.021Z,102255.00
2022-09-20T05:53:31.344Z,102249.63
2022-09-20T05:56:11.344Z,102256.63
2022-09-20T05:59:17.735Z,102256.59
2022-09-20T06:02:04.467Z,102262.13
2022-09-20T06:04:42.934Z,102258.09
2022-09-20T06:07:29.502Z,102260.50
2022-09-20T06:10:26.097Z,102262.00
2022-09-20T06:13:12.924Z,102264.47
2022-09-20T06:15:55.224Z,102270.78
2022-09-20T06:18:33.411Z,102268.59
2022-09-20T06:21:19.688Z,102267.00
2022-09-20T06:23:58.071Z,102278.81
2022-09-20T06:26:36.870Z,102279.59
2022-09-20T06:29:15.623Z,102284.75
2022-09-20T06:31:49.202Z,102286.31
2022-09-20T06:34:22.920Z,102286.34
2022-09-20T06:37:23.219Z,102288.31
2022-09-20T06:40:24.377Z,102283.53
2022-09-20T06:43:00.245Z,102276.06
2022-09-20T06:45:35.110Z,102279.38
2022-09-20T06:48:09.137Z,102273.47
2022-09-20T06:50:43.426Z,102284.03
2022-09-20T06:53:18.823Z,102279.34
2022-09-20T06:55:52.841Z,102284.50
2022-09-20T06:58:26.508Z,102285.22
2022-09-20T07:01:00.673Z,102294.78
2022-09-20T07:03:33.827Z,102288.41
2022-09-20T07:06:07.226Z,102288.91
2022-09-20T07:08:39.994Z,102291.69
2022-09-20T07:11:17.859Z,102298.06
2022-09-20T07:13:52.163Z,102294.97
2022-09-20T07:16:27.603Z,102291.44
2022-09-20T07:19:00.682Z,102297.28
2022-09-20T07:21:33.263Z,102306.84
2022-09-20T07:24:06.216Z,102299.75
2022-09-20T07:26:39.221Z,102303.69
2022-09-20T07:29:11.986Z,102294.97
2022-09-20T07:31:46.083Z,102310.91
2022-09-20T07:34:20.406Z,102303.78
2022-09-20T07:36:53.114Z,102300.59
2022-09-20T07:39:26.897Z,102310.28
2022-09-20T07:42:01.277Z,102310.31
2022-09-20T07:44:34.071Z,102311.84
2022-09-20T07:47:09.425Z,102316.63
2022-09-20T07:49:42.102Z,102324.59
2022-09-20T07:52:14.908Z,102331.31
2022-09-20T07:54:48.409Z,102328.75
2022-09-20T07:57:21.205Z,102322.72
2022-09-20T07:59:55.528Z,102328.28
2022-09-20T08:02:29.803Z,102331.91
2022-09-20T08:05:02.829Z,102327.78
2022-09-20T08:07:35.647Z,102329.91
2022-09-20T08:10:09.192Z,102338.19
2022-09-20T08:15:37.660Z,102340.28
2022-09-20T08:18:13.391Z,102338.69
2022-09-20T08:20:46.157Z,102340.28
2022-09-20T08:23:23.850Z,102344.25
2022-09-20T08:25:58.258Z,102339.69
2022-09-20T08:28:31.489Z,102350.66
2022-09-20T08:31:07.607Z,102347.94
2022-09-20T08:33:41.908Z,102342.00
2022-09-20T08:36:16.130Z,102345.22
2022-09-20T08:41:48.082Z,102350.94
2022-09-20T08:44:28.501Z,102355.88
2022-09-20T08:47:07.716Z,102358.66
2022-09-20T08:49:46.185Z,102357.34
2022-09-20T08:52:24.019Z,102360.31
2022-09-20T08:54:57.390Z,102370.63
2022-09-20T08:57:33.685Z,102363.94
2022-09-20T09:00:08.528Z,102365.19
2022-09-20T09:02:42.874Z,102366.75
2022-09-20T09:05:32.574Z,102365.25
2022-09-20T09:08:16.103Z,102368.84
2022-09-20T09:10:54.859Z,102373.69
2022-09-20T09:13:34.100Z,102368.09
2022-09-20T09:16:12.730Z,102373.28
2022-09-20T09:18:47.127Z,102378.47
2022-09-20T09:21:23.506Z,102378.09
2022-09-20T09:24:04.183Z,102379.44
2022-09-20T09:26:39.026Z,102378.09
2022-09-20T09:29:18.633Z,102381.00
2022-09-20T09:31:54.406Z,102378.59
2022-09-20T09:34:29.218Z,102385.78
2022-09-20T09:37:03.348Z,102374.66
2022-09-20T09:39:38.218Z,102381.78
2022-09-20T09:42:23.776Z,102380.19
2022-09-20T09:45:14.861Z,102382.63
2022-09-20T09:47:47.742Z,102385.56
2022-09-20T09:50:24.740Z,102388.44
2022-09-20T09:53:07.116Z,102384.22
2022-09-20T09:55:57.466Z,102387.00
2022-09-20T09:58:41.059Z,102383.44
2022-09-20T10:01:29.941Z,102386.66
2022-09-20T10:04:14.644Z,102385.81
2022-09-20T10:06:55.192Z,102385.81
2022-09-20T10:09:49.852Z,102383.47
2022-09-20T10:12:37.090Z,102386.97
2022-09-20T10:15:34.126Z,102395.31
2022-09-20T10:18:28.145Z,102392.19
2022-09-20T10:21:10.403Z,102391.41
2022-09-20T10:24:10.031Z,102387.44
2022-09-20T10:27:01.313Z,102393.03
2022-09-20T10:29:45.579Z,102389.88
2022-09-20T10:32:29.039Z,102395.41
2022-09-20T10:35:20.934Z,102389.84
2022-09-20T10:38:13.363Z,102380.63
2022-09-20T10:41:15.791Z,102388.59
2022-09-20T10:44:13.950Z,102389.81
2022-09-20T10:46:57.256Z,102394.22
2022-09-20T10:49:37.011Z,102395.41
2022-09-20T10:52:31.647Z,102397.78
2022-09-20T10:55:20.370Z,102384.69
2022-09-20T10:58:06.459Z,102397.81
2022-09-20T11:00:48.484Z,102399.38
2022-09-20T11:03:37.015Z,102399.38
2022-09-20T11:06:17.994Z,102397.81
2022-09-20T11:08:55.792Z,102401.34
2022-09-20T11:11:32.893Z,102399.78
2022-09-20T11:14:11.049Z,102404.56
2022-09-20T11:16:52.407Z,102402.53
2022-09-20T11:19:32.862Z,102404.56
2022-09-20T11:22:12.257Z,102408.53
2022-09-20T11:24:50.038Z,102407.34
2022-09-20T11:27:26.966Z,102410.53
2022-09-20T11:30:05.545Z,102406.53
2022-09-20T11:32:44.028Z,102410.06
2022-09-20T11:35:29.142Z,102414.84
2022-09-20T11:38:11.933Z,102410.41
2022-09-20T11:40:49.992Z,102414.31
2022-09-20T11:43:29.065Z,102416.63
2022-09-20T11:46:05.745Z,102419.84
2022-09-20T11:48:44.753Z,102419.34
2022-09-20T11:51:48.500Z,102421.34
2022-09-20T11:54:29.059Z,102422.97
2022-09-20T11:57:01.829Z,102414.97
2022-09-20T11:59:42.322Z,102418.09
2022-09-20T12:02:21.658Z,102419.72
2022-09-20T12:04:56.669Z,102415.31
2022-09-20T12:07:35.146Z,102430.75
2022-09-20T12:10:22.823Z,102415.97
2022-09-20T12:13:00.887Z,102414.69
2022-09-20T12:15:36.431Z,102422.16
2022-09-20T12:18:28.245Z,102419.25
2022-09-20T12:21:15.933Z,102420.03
2022-09-20T12:24:20.412Z,102408.88
2022-09-20T12:26:58.885Z,102417.53
2022-09-20T12:29:55.213Z,102416.19
2022-09-20T12:32:57.360Z,102417.31
2022-09-20T12:36:14.412Z,102417.47
2022-09-20T12:39:06.416Z,102420.06
2022-09-20T12:41:51.505Z,102410.72
2022-09-20T12:44:29.097Z,102410.22
2022-09-20T12:47:04.219Z,102410.56
2022-09-20T12:49:59.206Z,102409.25
2022-09-20T12:52:57.466Z,102409.56
2022-09-20T12:55:46.035Z,102411.97
2022-09-20T12:58:51.450Z,102409.44
2022-09-20T13:01:38.237Z,102410.81
2022-09-20T13:04:56.621Z,102410.38
2022-09-20T13:07:47.008Z,102413.66
2022-09-20T13:10:26.224Z,102420.06
2022-09-20T13:13:05.649Z,102419.03
2022-09-20T13:15:40.150Z,102414.25
2022-09-20T13:18:15.592Z,102416.88
2022-09-20T13:20:48.449Z,102423.94
2022-09-20T13:23:26.625Z,102422.72
2022-09-20T13:25:59.706Z,102418.91
2022-09-20T13:28:41.007Z,102423.94
2022-09-20T13:31:31.668Z,102428.59
2022-09-20T13:34:15.050Z,102422.75
2022-09-20T13:36:48.172Z,102423.56
2022-09-20T13:39:27.048Z,102426.00
2022-09-20T13:42:03.077Z,102426.81
2022-09-20T13:44:37.423Z,102422.41
2022-09-20T13:47:24.432Z,102422.09
2022-09-20T13:50:16.793Z,102426.38
2022-09-20T13:52:52.046Z,102424.13
2022-09-20T13:55:30.591Z,102434.22
2022-09-20T13:58:07.431Z,102431.19
2022-09-20T14:00:47.520Z,102428.75
2022-09-20T14:03:22.085Z,102421.88
2022-09-20T14:05:59.334Z,102422.94
2022-09-20T14:08:36.410Z,102419.34
2022-09-20T14:11:15.904Z,102413.34
2022-09-20T14:13:52.621Z,102416.25
2022-09-20T14:16:32.199Z,102425.16
2022-09-20T14:19:07.900Z,102415.88
2022-09-20T14:21:40.898Z,102416.03
2022-09-20T14:24:28.808Z,102417.72
2022-09-20T14:27:17.759Z,102415.81
2022-09-20T14:29:52.056Z,102429.19
2022-09-20T14:32:38.877Z,102416.81
2022-09-20T14:35:19.414Z,102412.00
2022-09-20T14:37:57.054Z,102415.94
2022-09-20T14:40:32.362Z,102415.31
2022-09-20T14:43:07.354Z,102414.69
2022-09-20T14:45:43.210Z,102410.78
2022-09-20T14:51:25.376Z,102415.03
2022-09-20T14:54:24.202Z,102411.75
2022-09-20T14:56:58.661Z,102404.03
2022-09-20T14:59:39.862Z,102400.69
2022-09-20T15:02:15.041Z,102402.69
2022-09-20T15:04:54.705Z,102397.97
2022-09-20T15:07:30.462Z,102412.75
2022-09-20T15:10:05.453Z,102397.47
2022-09-20T15:12:38.188Z,102401.22
2022-09-20T15:15:15.924Z,102403.78
2022-09-20T15:17:48.786Z,102401.91
2022-09-20T15:20:24.524Z,102399.44
2022-09-20T15:22:58.902Z,102407.56
2022-09-20T15:25:31.653Z,102405.25
2022-09-20T15:28:04.573Z,102396.81
2022-09-20T15:30:37.249Z,102399.69
2022-09-20T15:33:11.489Z,102395.69
2022-09-20T15:35:45.776Z,102394.06
2022-09-20T15:38:20.139Z,102398.94
2022-09-20T15:40:53.130Z,102390.81
2022-09-20T15:43:27.954Z,102386.44
2022-09-20T15:46:02.545Z,102386.03
2022-09-20T15:48:35.493Z,102384.16
2022-09-20T15:51:11.312Z,102379.00
2022-09-20T15:53:48.736Z,102391.13
2022-09-20T15:56:23.300Z,102379.63
2022-09-20T15:59:00.267Z,102384.41
2022-09-20T16:01:35.513Z,102388.88
2022-09-20T16:04:09.866Z,102379.00
2022-09-20T16:06:44.170Z,102382.59
2022-09-20T16:09:18.889Z,102384.19
2022-09-20T16:11:58.568Z,102390.56
2022-09-20T16:14:31.631Z,102393.00
2022-09-20T16:17:04.155Z,102399.41
2022-09-20T16:19:35.823Z,102397.41
2022-09-20T16:22:08.685Z,102406.16
2022-09-20T16:24:42.790Z,102406.28
2022-09-20T16:27:18.379Z,102402.28
2022-09-20T16:29:51.236Z,102399.19
2022-09-20T16:32:23.973Z,102408.31
2022-09-20T16:34:58.699Z,102410.38
2022-09-20T16:37:32.702Z,102415.56
2022-09-20T16:40:11.274Z,102415.19
2022-09-20T16:42:52.133Z,102417.16
2022-09-20T16:45:29.386Z,102418.41
2022-09-20T16:48:06.400Z,102416.75
2022-09-20T16:50:41.062Z,102424.78
2022-09-20T16:53:13.733Z,102423.22
2022-09-20T16:55:48.991Z,102424.00
2022-09-20T16:58:22.533Z,102424.06
2022-09-20T17:00:55.542Z,102430.78
2022-09-20T17:03:29.407Z,102433.56
2022-09-20T17:06:03.110Z,102432.78
2022-09-20T17:08:38.705Z,102430.38
2022-09-20T17:11:15.178Z,102432.00
2022-09-20T17:13:51.273Z,102429.63
2022-09-20T17:16:26.553Z,102435.19
2022-09-20T17:19:01.872Z,102435.59
2022-09-20T17:21:36.239Z,102436.81
2022-09-20T17:24:09.091Z,102437.22
2022-09-20T17:26:45.370Z,102439.97
2022-09-20T17:29:19.844Z,102440.00
2022-09-20T17:31:56.274Z,102437.59
2022-09-20T17:34:31.682Z,102438.78
2022-09-20T17:37:04.792Z,102446.75
2022-09-20T17:39:37.371Z,102446.34
2022-09-20T17:42:11.526Z,102454.25
2022-09-20T17:44:44.296Z,102458.63
2022-09-20T17:47:18.187Z,102451.03
2022-09-20T17:49:51.096Z,102454.22
2022-09-20T17:52:23.920Z,102453.03
2022-09-20T17:54:56.792Z,102459.00
2022-09-20T17:57:31.043Z,102457.03
2022-09-20T18:00:04.361Z,102462.19
2022-09-20T18:02:37.412Z,102465.78
2022-09-20T18:05:10.547Z,102463.69
2022-09-20T18:07:43.138Z,102470.03
2022-09-20T18:10:16.024Z,102476.78
2022-09-20T18:12:50.231Z,102475.56
2022-09-20T18:15:23.606Z,102474.00
2022-09-20T18:17:56.301Z,102474.03
2022-09-20T18:20:29.784Z,102477.13
2022-09-20T18:23:02.757Z,102476.38
2022-09-20T18:25:55.845Z,102484.25
2022-09-20T18:28:30.970Z,102480.72
2022-09-20T18:31:05.214Z,102481.88
2022-09-20T18:33:37.998Z,102476.31
2022-09-20T18:36:10.803Z,102479.47
2022-09-20T18:38:45.832Z,102483.75
2022-09-20T18:41:18.517Z,102483.34
2022-09-20T18:43:56.360Z,102496.81
2022-09-20T18:46:30.829Z,102488.88
2022-09-20T18:49:07.069Z,102495.28
2022-09-20T18:51:41.021Z,102489.66
2022-09-20T18:54:14.155Z,102492.81
2022-09-20T18:56:49.084Z,102491.16
2022-09-20T18:59:26.585Z,102493.53
2022-09-20T19:02:10.535Z,102493.13
2022-09-20T19:05:08.384Z,102501.44
2022-09-20T19:07:52.470Z,102508.16
2022-09-20T19:10:38.061Z,102505.41
2022-09-20T19:13:26.279Z,102498.56
2022-09-20T19:16:22.829Z,102505.72
2022-09-20T19:19:30.726Z,102501.28
2022-09-20T19:22:14.974Z,102498.13
2022-09-20T19:25:05.034Z,102504.44
2022-09-20T19:27:38.247Z,102510.41
2022-09-20T19:30:14.791Z,102508.38
2022-09-20T19:32:49.603Z,102508.38
2022-09-20T19:35:29.387Z,102508.38
2022-09-20T19:38:11.746Z,102511.47
2022-09-20T19:40:54.566Z,102522.19
2022-09-20T19:43:49.558Z,102515.28
2022-09-20T19:46:46.513Z,102514.81
2022-09-20T19:49:29.972Z,102523.25
2022-09-20T19:52:08.617Z,102531.19
2022-09-20T19:54:46.317Z,102527.84
2022-09-20T19:57:24.791Z,102531.81
2022-09-20T19:59:58.121Z,102532.53
2022-09-20T20:02:31.981Z,102534.09
2022-09-20T20:05:07.486Z,102534.09
2022-09-20T20:07:47.321Z,102539.59
2022-09-20T20:10:28.035Z,102534.41
2022-09-20T20:13:30.202Z,102540.28
2022-09-20T20:16:05.969Z,102540.28
2022-09-20T20:18:46.351Z,102545.28
2022-09-20T20:21:26.821Z,102545.09
2022-09-20T20:24:09.268Z,102541.66
2022-09-20T20:26:41.984Z,102540.91
2022-09-20T20:29:14.877Z,102547.91
2022-09-20T20:31:47.796Z,102544.41
2022-09-20T20:34:21.536Z,102546.19
2022-09-20T20:37:00.776Z,102552.47
2022-09-20T20:39:33.977Z,102557.75
2022-09-20T20:42:08.457Z,102554.00
2022-09-20T20:44:42.068Z,102553.19
2022-09-20T20:47:15.099Z,102555.09
2022-09-20T20:49:52.524Z,102565.00
2022-09-20T20:52:27.068Z,102563.28
2022-09-20T20:55:00.134Z,102561.53
2022-09-20T20:57:34.230Z,102569.94
2022-09-20T21:00:08.386Z,102566.34
2022-09-20T21:02:41.193Z,102573.69
2022-09-20T21:05:15.427Z,102578.94
2022-09-20T21:07:53.104Z,102578.91
2022-09-20T21:10:25.964Z,102573.69
2022-09-20T21:13:00.139Z,102580.84
2022-09-20T21:15:33.158Z,102577.22
2022-09-20T21:18:05.950Z,102582.56
2022-09-20T21:20:39.546Z,102580.09
2022-09-20T21:23:13.635Z,102584.78
2022-09-20T21:25:46.501Z,102578.44
2022-09-20T21:28:19.940Z,102576.47
2022-09-20T21:31:00.479Z,102576.09
2022-09-20T21:33:39.078Z,102578.38
2022-09-20T21:36:14.009Z,102585.09
2022-09-20T21:38:48.407Z,102583.91
2022-09-20T21:41:23.149Z,102578.38
2022-09-20T21:43:57.210Z,102579.25
2022-09-20T21:46:32.294Z,102581.94
2022-09-20T21:49:07.155Z,102579.97
2022-09-20T21:51:41.977Z,102577.41
2022-09-20T21:54:15.936Z,102581.81
2022-09-20T21:56:49.871Z,102584.66
2022-09-20T21:59:22.888Z,102587.09
2022-09-20T22:01:56.403Z,102583.91
2022-09-20T22:04:29.341Z,102586.19
2022-09-20T22:07:02.356Z,102584.59
2022-09-20T22:09:36.299Z,102586.16
2022-09-20T22:12:08.995Z,102585.41
2022-09-20T22:14:41.665Z,102583.06
2022-09-20T22:17:14.303Z,102580.97
2022-09-20T22:19:47.143Z,102584.44
2022-09-20T22:22:19.813Z,102589.88
2022-09-20T22:24:53.917Z,102585.91
2022-09-20T22:27:26.576Z,102593.97
2022-09-20T22:30:04.029Z,102588.28
2022-09-20T22:32:37.602Z,102592.19
2022-09-20T22:35:10.475Z,102591.44
2022-09-20T22:37:43.108Z,102598.94
2022-09-20T22:40:17.471Z,102598.16
2022-09-20T22:42:50.351Z,102592.19
2022-09-20T22:45:23.684Z,102600.78
2022-09-20T22:47:56.323Z,102592.06
2022-09-20T22:50:29.437Z,102595.25
2022-09-20T22:53:01.912Z,102594.47
2022-09-20T22:55:36.356Z,102597.53
2022-09-20T22:58:09.009Z,102595.13
2022-09-20T23:00:41.744Z,102594.97
2022-09-20T23:03:14.521Z,102594.22
2022-09-20T23:05:47.244Z,102600.56
2022-09-20T23:08:22.378Z,102603.63
2022-09-20T23:11:02.749Z,102602.91
2022-09-20T23:13:35.636Z,102604.31
2022-09-20T23:16:13.181Z,102605.09
2022-09-20T23:18:46.530Z,102606.50
2022-09-20T23:21:20.112Z,102608.16
2022-09-20T23:23:54.576Z,102607.06
2022-09-20T23:26:30.595Z,102608.97
2022-09-20T23:29:05.371Z,102608.63
2022-09-20T23:31:39.663Z,102602.72
2022-09-20T23:34:13.022Z,102608.38
2022-09-20T23:36:46.488Z,102607.59
2022-09-20T23:39:19.151Z,102611.19
2022-09-20T23:41:53.137Z,102616.22
2022-09-20T23:44:25.788Z,102605.16
2022-09-20T23:46:58.495Z,102605.94
2022-09-20T23:49:31.198Z,102612.75
2022-09-20T23:52:04.740Z,102614.63
2022-09-20T23:54:37.339Z,102609.91
2022-09-20T23:57:11.468Z,102604.44
2022-09-20T23:59:44.132Z,102598.94
